createdAt,value
2022-07-27T00:01:31.686Z,96466.38
2022-07-27T00:04:01.152Z,96462.59
2022-07-27T00:06:28.869Z,96463.03
2022-07-27T00:08:56.910Z,96470.31
2022-07-27T00:11:25.948Z,96467.44
2022-07-27T00:13:56.273Z,96472.25
2022-07-27T00:16:24.722Z,96466.38
2022-07-27T00:18:52.739Z,96466.84
2022-07-27T00:21:22.190Z,96465.69
2022-07-27T00:23:51.429Z,96463.78
2022-07-27T00:26:22.717Z,96456.03
2022-07-27T00:28:50.715Z,96451.66
2022-07-27T00:31:18.470Z,96457.56
2022-07-27T00:33:48.067Z,96454.84
2022-07-27T00:36:16.054Z,96464.28
2022-07-27T00:38:47.324Z,96210.50
2022-07-27T00:41:14.997Z,96460.09
2022-07-27T00:43:53.717Z,96454.44
2022-07-27T00:46:21.471Z,96456.13
2022-07-27T00:48:49.632Z,96464.97
2022-07-27T00:51:18.249Z,96452.44
2022-07-27T00:53:47.526Z,96445.69
2022-07-27T00:56:15.694Z,96437.94
2022-07-27T00:58:43.937Z,96450.44
2022-07-27T01:01:12.178Z,96445.38
2022-07-27T01:03:40.369Z,96440.28
2022-07-27T01:06:08.108Z,96438.47
2022-07-27T01:08:35.819Z,96438.03
2022-07-27T01:11:05.692Z,96451.19
2022-07-27T01:13:33.919Z,96448.38
2022-07-27T01:16:04.544Z,96443.56
2022-07-27T01:18:32.676Z,96439.75
2022-07-27T01:21:02.297Z,96434.63
2022-07-27T01:23:36.170Z,96437.75
2022-07-27T01:26:07.889Z,96436.75
2022-07-27T01:28:38.613Z,96436.38
2022-07-27T01:31:06.684Z,96434.50
2022-07-27T01:33:34.661Z,96432.28
2022-07-27T01:36:04.873Z,96433.41
2022-07-27T01:38:36.558Z,96426.97
2022-07-27T01:41:04.592Z,96423.47
2022-07-27T01:43:34.497Z,96426.50
2022-07-27T01:46:05.728Z,96417.16
2022-07-27T01:48:39.531Z,96421.69
2022-07-27T01:51:09.532Z,96415.59
2022-07-27T01:53:40.011Z,96413.78
2022-07-27T01:56:10.790Z,96416.56
2022-07-27T01:58:41.075Z,96416.88
2022-07-27T02:01:09.473Z,96409.03
2022-07-27T02:03:38.554Z,96407.00
2022-07-27T02:06:06.819Z,96409.81
2022-07-27T02:08:36.814Z,96406.16
2022-07-27T02:11:23.057Z,96411.09
2022-07-27T02:13:51.184Z,96397.31
2022-07-27T02:16:19.545Z,96400.69
2022-07-27T02:18:48.628Z,96397.97
2022-07-27T02:21:17.233Z,96394.41
2022-07-27T02:23:47.074Z,96392.78
2022-07-27T02:26:19.158Z,96390.38
2022-07-27T02:28:46.776Z,96386.28
2022-07-27T02:31:23.572Z,96389.06
2022-07-27T02:33:51.521Z,96399.41
2022-07-27T02:36:23.323Z,96400.53
2022-07-27T02:38:51.092Z,96414.38
2022-07-27T02:41:30.726Z,96412.72
2022-07-27T02:43:58.897Z,96450.47
2022-07-27T02:46:27.014Z,96405.13
2022-07-27T02:48:56.983Z,96408.25
2022-07-27T02:51:25.357Z,96399.84
2022-07-27T02:53:53.245Z,96403.44
2022-07-27T02:56:26.908Z,96402.59
2022-07-27T02:58:56.595Z,96401.41
2022-07-27T03:01:29.618Z,96407.34
2022-07-27T03:03:57.708Z,96403.31
2022-07-27T03:06:25.491Z,96407.47
2022-07-27T03:08:57.105Z,96413.56
2022-07-27T03:11:24.674Z,96406.28
2022-07-27T03:13:52.811Z,96402.00
2022-07-27T03:16:22.758Z,96412.84
2022-07-27T03:18:50.899Z,96409.19
2022-07-27T03:21:21.026Z,96413.69
2022-07-27T03:23:51.099Z,96412.06
2022-07-27T03:26:22.763Z,96410.22
2022-07-27T03:28:53.104Z,96414.25
2022-07-27T03:31:25.383Z,96414.13
2022-07-27T03:33:53.102Z,96413.00
2022-07-27T03:36:22.234Z,96408.00
2022-07-27T03:38:50.309Z,96404.31
2022-07-27T03:41:18.366Z,96409.69
2022-07-27T03:43:46.035Z,96407.16
2022-07-27T03:46:14.103Z,96418.09
2022-07-27T03:48:43.773Z,96413.97
2022-07-27T03:51:11.870Z,96412.88
2022-07-27T03:53:39.547Z,96415.09
2022-07-27T03:56:08.850Z,96411.00
2022-07-27T03:58:39.064Z,96412.53
2022-07-27T04:01:06.858Z,96411.91
2022-07-27T04:03:34.857Z,96420.78
2022-07-27T04:06:03.898Z,96417.91
2022-07-27T04:08:34.135Z,96424.06
2022-07-27T04:11:07.755Z,96419.81
2022-07-27T04:13:39.958Z,96427.25
2022-07-27T04:16:09.399Z,96427.97
2022-07-27T04:18:40.342Z,96424.38
2022-07-27T04:21:09.813Z,96413.00
2022-07-27T04:23:38.841Z,96423.47
2022-07-27T04:26:07.618Z,96428.16
2022-07-27T04:28:35.869Z,96429.41
2022-07-27T04:31:03.579Z,96444.25
2022-07-27T04:33:41.912Z,96425.13
2022-07-27T04:36:10.908Z,96425.47
2022-07-27T04:38:38.586Z,96432.91
2022-07-27T04:41:09.102Z,96436.72
2022-07-27T04:43:37.012Z,96438.44
2022-07-27T04:46:05.224Z,96440.03
2022-07-27T04:48:33.326Z,96442.25
2022-07-27T04:51:02.970Z,96429.47
2022-07-27T04:53:32.646Z,96444.28
2022-07-27T04:56:00.664Z,96446.75
2022-07-27T04:58:28.729Z,96439.41
2022-07-27T05:00:56.517Z,96474.13
2022-07-27T05:03:24.685Z,96451.38
2022-07-27T05:05:53.946Z,96455.81
2022-07-27T05:08:21.688Z,96457.97
2022-07-27T05:10:53.309Z,96456.91
2022-07-27T05:13:21.535Z,96462.84
2022-07-27T05:15:55.274Z,96463.66
2022-07-27T05:18:23.823Z,96460.66
2022-07-27T05:20:51.797Z,96460.34
2022-07-27T05:23:21.951Z,96460.19
2022-07-27T05:25:51.637Z,96464.59
2022-07-27T05:28:19.852Z,96472.34
2022-07-27T05:30:49.522Z,96475.09
2022-07-27T05:33:17.661Z,96470.00
2022-07-27T05:35:45.547Z,96507.59
2022-07-27T05:38:13.341Z,96473.56
2022-07-27T05:40:41.938Z,96479.91
2022-07-27T05:43:12.710Z,96487.53
2022-07-27T05:45:40.627Z,96300.41
2022-07-27T05:48:08.456Z,96482.56
2022-07-27T05:50:38.837Z,96487.75
2022-07-27T05:53:07.949Z,96490.97
2022-07-27T05:55:37.718Z,96492.88
2022-07-27T05:58:06.471Z,96495.16
2022-07-27T06:00:39.640Z,96501.44
2022-07-27T06:03:07.550Z,96492.06
2022-07-27T06:05:35.488Z,96482.66
2022-07-27T06:08:08.798Z,96483.41
2022-07-27T06:10:37.375Z,96484.78
2022-07-27T06:13:05.921Z,96486.88
2022-07-27T06:15:36.601Z,96493.56
2022-07-27T06:18:06.870Z,96489.13
2022-07-27T06:20:41.644Z,96500.63
2022-07-27T06:23:11.147Z,96501.91
2022-07-27T06:25:39.816Z,96511.22
2022-07-27T06:28:09.190Z,96500.56
2022-07-27T06:30:38.559Z,96500.38
2022-07-27T06:33:07.206Z,96496.19
2022-07-27T06:35:37.897Z,96499.75
2022-07-27T06:38:07.541Z,96499.56
2022-07-27T06:40:35.637Z,96502.06
2022-07-27T06:43:05.301Z,96504.56
2022-07-27T06:45:33.028Z,96509.81
2022-07-27T06:48:05.272Z,96508.03
2022-07-27T06:50:33.289Z,96504.16
2022-07-27T06:53:01.829Z,96502.47
2022-07-27T06:55:31.498Z,96507.03
2022-07-27T06:57:59.263Z,96508.09
2022-07-27T07:00:27.767Z,96503.38
2022-07-27T07:02:59.667Z,96511.97
2022-07-27T07:05:29.273Z,96510.56
2022-07-27T07:08:01.006Z,96513.41
2022-07-27T07:10:28.994Z,96519.03
2022-07-27T07:12:57.036Z,96510.91
2022-07-27T07:15:28.581Z,96091.44
2022-07-27T07:17:57.807Z,96511.91
2022-07-27T07:20:29.045Z,96513.16
2022-07-27T07:23:00.095Z,96515.94
2022-07-27T07:25:28.211Z,96512.25
2022-07-27T07:27:58.410Z,96518.56
2022-07-27T07:30:27.528Z,96503.63
2022-07-27T07:32:56.896Z,96495.22
2022-07-27T07:35:29.013Z,96496.13
2022-07-27T07:37:59.060Z,96495.66
2022-07-27T07:40:44.386Z,96500.09
2022-07-27T07:43:13.285Z,96494.34
2022-07-27T07:45:47.182Z,96499.16
2022-07-27T07:48:19.473Z,96497.53
2022-07-27T07:50:52.474Z,96494.84
2022-07-27T07:53:26.445Z,96499.03
2022-07-27T07:55:56.291Z,96497.47
2022-07-27T07:58:24.697Z,96340.44
2022-07-27T08:00:53.525Z,96496.22
2022-07-27T08:03:22.284Z,96496.44
2022-07-27T08:05:54.203Z,96499.97
2022-07-27T08:08:24.824Z,96488.78
2022-07-27T08:10:53.307Z,96497.22
2022-07-27T08:13:22.432Z,96497.41
2022-07-27T08:15:53.046Z,96499.88
2022-07-27T08:18:22.374Z,96503.25
2022-07-27T08:20:51.119Z,96503.22
2022-07-27T08:23:19.207Z,96501.03
2022-07-27T08:25:52.553Z,96506.72
2022-07-27T08:28:20.296Z,96503.47
2022-07-27T08:30:49.278Z,96511.44
2022-07-27T08:33:18.882Z,96512.56
2022-07-27T08:35:50.471Z,96510.56
2022-07-27T08:38:23.693Z,96515.09
2022-07-27T08:40:53.398Z,96523.47
2022-07-27T08:43:25.224Z,96536.97
2022-07-27T08:45:57.780Z,96510.72
2022-07-27T08:48:25.740Z,96517.13
2022-07-27T08:50:53.570Z,96517.75
2022-07-27T08:53:24.385Z,96512.38
2022-07-27T08:55:53.625Z,96509.09
2022-07-27T08:58:24.043Z,96504.34
2022-07-27T09:00:55.914Z,96288.53
2022-07-27T09:03:24.512Z,96522.25
2022-07-27T09:05:54.185Z,96521.38
2022-07-27T09:08:24.429Z,96530.31
2022-07-27T09:10:57.420Z,96519.41
2022-07-27T09:13:26.744Z,96517.38
2022-07-27T09:16:17.028Z,96508.69
2022-07-27T09:18:46.402Z,96511.81
2022-07-27T09:21:18.017Z,96506.44
2022-07-27T09:23:48.213Z,96509.16
2022-07-27T09:26:37.279Z,96515.59
2022-07-27T09:29:07.645Z,96506.09
2022-07-27T09:31:42.494Z,96510.88
2022-07-27T09:34:11.044Z,96509.72
2022-07-27T09:36:50.950Z,96510.63
2022-07-27T09:39:20.309Z,96505.25
2022-07-27T09:41:51.064Z,96507.41
2022-07-27T09:44:42.980Z,96504.44
2022-07-27T09:47:20.975Z,96508.25
2022-07-27T09:49:49.007Z,96501.09
2022-07-27T09:52:23.793Z,96508.91
2022-07-27T09:54:51.615Z,96505.59
2022-07-27T09:57:21.596Z,96502.97
2022-07-27T09:59:51.387Z,96503.75
2022-07-27T10:02:19.186Z,96504.50
2022-07-27T10:04:47.365Z,96506.63
2022-07-27T10:07:17.826Z,96500.13
2022-07-27T10:09:50.233Z,96493.41
2022-07-27T10:12:17.957Z,96486.06
2022-07-27T10:14:49.905Z,96490.03
2022-07-27T10:17:21.178Z,96501.00
2022-07-27T10:19:50.730Z,96489.88
2022-07-27T10:22:18.818Z,96497.09
2022-07-27T10:24:52.971Z,96498.09
2022-07-27T10:27:22.483Z,96501.34
2022-07-27T10:29:55.145Z,96494.09
2022-07-27T10:32:24.769Z,96502.59
2022-07-27T10:34:52.694Z,96497.63
2022-07-27T10:37:25.421Z,96491.34
2022-07-27T10:40:14.209Z,96493.94
2022-07-27T10:42:42.323Z,96492.16
2022-07-27T10:45:12.886Z,96490.47
2022-07-27T10:47:42.525Z,96496.66
2022-07-27T10:50:46.173Z,96493.59
2022-07-27T10:53:14.006Z,96487.41
2022-07-27T10:55:47.799Z,96492.69
2022-07-27T10:58:51.995Z,96486.06
2022-07-27T11:01:24.667Z,96487.06
2022-07-27T11:03:58.216Z,96485.88
2022-07-27T11:06:48.117Z,96492.69
2022-07-27T11:10:03.235Z,96487.50
2022-07-27T11:12:08.533Z,96480.97
2022-07-27T11:14:47.456Z,96476.31
2022-07-27T11:17:49.547Z,96481.47
2022-07-27T11:20:06.768Z,96479.56
2022-07-27T11:25:23.448Z,96478.22
2022-07-27T11:27:52.566Z,96473.50
2022-07-27T11:30:28.386Z,96473.47
2022-07-27T11:32:58.819Z,96479.31
2022-07-27T11:35:27.010Z,96506.88
2022-07-27T11:38:06.634Z,96473.88
2022-07-27T11:40:58.034Z,96478.28
2022-07-27T11:43:36.788Z,96466.47
2022-07-27T11:46:15.171Z,96458.69
2022-07-27T11:49:06.572Z,96261.16
2022-07-27T11:51:36.722Z,96460.84
2022-07-27T11:54:06.659Z,96459.97
2022-07-27T11:56:35.323Z,96460.53
2022-07-27T11:59:10.643Z,96458.28
2022-07-27T12:01:39.435Z,96451.72
2022-07-27T12:04:21.514Z,96455.47
2022-07-27T12:09:37.971Z,96453.63
2022-07-27T12:12:15.871Z,96459.06
2022-07-27T12:14:46.174Z,96458.59
2022-07-27T12:17:19.163Z,96455.28
2022-07-27T12:19:56.099Z,96453.00
2022-07-27T12:22:24.845Z,96463.31
2022-07-27T12:24:55.952Z,96472.50
2022-07-27T12:27:24.147Z,96474.56
2022-07-27T12:30:10.242Z,96468.22
2022-07-27T12:32:41.762Z,96462.41
2022-07-27T12:35:25.563Z,96469.09
2022-07-27T12:38:00.396Z,96465.00
2022-07-27T12:40:28.295Z,96463.47
2022-07-27T12:42:59.864Z,96458.22
2022-07-27T12:45:33.795Z,96467.56
2022-07-27T12:48:08.645Z,96461.59
2022-07-27T12:50:39.872Z,96455.75
2022-07-27T12:53:10.535Z,96449.59
2022-07-27T12:55:38.757Z,96443.47
2022-07-27T12:58:07.538Z,96453.22
2022-07-27T13:00:35.692Z,96458.19
2022-07-27T13:03:04.183Z,96441.97
2022-07-27T13:05:33.765Z,96434.44
2022-07-27T13:08:05.050Z,96447.94
2022-07-27T13:10:32.909Z,96446.09
2022-07-27T13:13:01.344Z,96448.63
2022-07-27T13:15:29.746Z,96445.03
2022-07-27T13:17:57.528Z,96459.44
2022-07-27T13:20:25.235Z,96454.81
2022-07-27T13:22:53.343Z,96447.72
2022-07-27T13:25:22.755Z,96443.41
2022-07-27T13:27:59.941Z,96446.63
2022-07-27T13:30:30.265Z,96446.97
2022-07-27T13:33:01.400Z,96436.19
2022-07-27T13:35:29.237Z,96376.47
2022-07-27T13:37:57.032Z,96442.41
2022-07-27T13:40:29.566Z,96435.09
2022-07-27T13:42:57.629Z,96437.56
2022-07-27T13:45:25.553Z,96433.03
2022-07-27T13:47:54.688Z,96434.78
2022-07-27T13:50:23.686Z,96437.41
2022-07-27T13:52:53.085Z,96440.97
2022-07-27T13:55:26.163Z,96435.63
2022-07-27T13:57:57.277Z,96436.88
2022-07-27T14:00:25.128Z,96432.06
2022-07-27T14:02:53.379Z,96432.66
2022-07-27T14:05:24.105Z,96439.25
2022-07-27T14:07:54.727Z,96435.63
2022-07-27T14:10:39.957Z,96428.53
2022-07-27T14:13:10.509Z,96432.63
2022-07-27T14:15:54.569Z,96426.69
2022-07-27T14:18:26.467Z,96428.66
2022-07-27T14:20:54.794Z,96430.81
2022-07-27T14:23:23.265Z,96428.66
2022-07-27T14:25:50.978Z,96440.00
2022-07-27T14:28:25.217Z,96431.69
2022-07-27T14:30:57.002Z,96428.31
2022-07-27T14:33:25.122Z,96426.63
2022-07-27T14:35:52.806Z,96419.09
2022-07-27T14:38:28.266Z,96414.44
2022-07-27T14:40:59.305Z,96419.91
2022-07-27T14:43:31.142Z,96414.47
2022-07-27T14:46:02.015Z,96419.97
2022-07-27T14:49:04.191Z,96418.47
2022-07-27T14:51:18.860Z,96417.47
2022-07-27T14:53:46.647Z,96424.31
2022-07-27T14:56:14.827Z,96424.81
2022-07-27T14:58:46.705Z,96419.38
2022-07-27T15:01:17.003Z,96412.53
2022-07-27T15:03:45.378Z,96423.06
2022-07-27T15:06:13.418Z,96420.09
2022-07-27T15:08:41.158Z,96418.66
2022-07-27T15:11:09.833Z,96421.63
2022-07-27T15:13:42.407Z,96418.66
2022-07-27T15:16:15.493Z,96422.34
2022-07-27T15:18:43.580Z,96418.69
2022-07-27T15:21:25.584Z,96421.59
2022-07-27T15:23:53.639Z,96418.19
2022-07-27T15:26:21.469Z,96424.53
2022-07-27T15:28:49.542Z,96417.63
2022-07-27T15:31:20.061Z,96418.13
2022-07-27T15:33:47.831Z,96410.66
2022-07-27T15:36:31.447Z,96413.41
2022-07-27T15:39:05.578Z,96413.00
2022-07-27T15:41:33.905Z,96412.38
2022-07-27T15:44:03.429Z,96416.66
2022-07-27T15:46:34.657Z,96408.75
2022-07-27T15:49:03.829Z,96404.91
2022-07-27T15:51:32.427Z,96415.81
2022-07-27T15:54:05.904Z,96414.00
2022-07-27T15:56:35.843Z,96413.91
2022-07-27T15:59:03.477Z,96418.78
2022-07-27T16:01:35.313Z,96400.47
2022-07-27T16:04:08.079Z,96406.91
2022-07-27T16:06:39.835Z,96408.81
2022-07-27T16:09:10.024Z,96412.34
2022-07-27T16:11:39.219Z,96404.13
2022-07-27T16:14:07.591Z,96396.53
2022-07-27T16:16:36.800Z,96395.97
2022-07-27T16:19:13.193Z,96403.41
2022-07-27T16:21:53.675Z,96394.00
2022-07-27T16:24:23.698Z,96398.38
2022-07-27T16:26:51.380Z,96393.34
2022-07-27T16:29:19.020Z,96383.75
2022-07-27T16:31:48.182Z,96378.59
2022-07-27T16:34:16.520Z,96373.28
2022-07-27T16:36:44.330Z,96377.34
2022-07-27T16:39:12.166Z,96373.72
2022-07-27T16:41:39.989Z,96376.81
2022-07-27T16:44:07.767Z,96370.16
2022-07-27T16:46:35.479Z,96365.31
2022-07-27T16:49:04.634Z,96370.84
2022-07-27T16:51:32.306Z,96375.97
2022-07-27T16:54:00.082Z,96380.94
2022-07-27T16:56:27.835Z,96378.38
2022-07-27T16:58:55.782Z,96383.00
2022-07-27T17:01:26.968Z,96382.47
2022-07-27T17:03:56.804Z,96387.59
2022-07-27T17:06:26.868Z,96384.81
2022-07-27T17:08:54.636Z,96378.22
2022-07-27T17:11:22.539Z,96385.25
2022-07-27T17:13:58.278Z,96379.41
2022-07-27T17:16:28.124Z,96384.53
2022-07-27T17:18:56.144Z,96382.94
2022-07-27T17:21:23.834Z,96386.78
2022-07-27T17:23:53.401Z,96377.72
2022-07-27T17:26:24.764Z,96371.63
2022-07-27T17:28:54.557Z,96376.03
2022-07-27T17:31:24.921Z,96383.59
2022-07-27T17:33:53.274Z,96379.41
2022-07-27T17:36:21.097Z,96383.00
2022-07-27T17:38:49.208Z,96385.34
2022-07-27T17:41:24.558Z,96390.50
2022-07-27T17:43:52.852Z,96388.31
2022-07-27T17:46:20.736Z,96386.75
2022-07-27T17:48:48.639Z,96386.56
2022-07-27T17:51:16.812Z,96389.19
2022-07-27T17:53:44.723Z,96386.50
2022-07-27T17:56:13.605Z,96389.13
2022-07-27T17:58:43.400Z,96396.53
2022-07-27T18:01:11.309Z,96394.53
2022-07-27T18:03:40.536Z,96393.03
2022-07-27T18:06:08.403Z,96392.41
2022-07-27T18:08:36.503Z,96386.06
2022-07-27T18:11:04.575Z,96385.88
2022-07-27T18:13:38.894Z,96388.34
2022-07-27T18:16:11.788Z,96392.91
2022-07-27T18:18:40.021Z,96394.72
2022-07-27T18:21:09.138Z,96406.25
2022-07-27T18:23:39.328Z,96388.19
2022-07-27T18:26:07.231Z,96397.38
2022-07-27T18:28:39.458Z,96397.63
2022-07-27T18:31:15.146Z,96400.50
2022-07-27T18:33:48.714Z,96406.78
2022-07-27T18:36:19.918Z,96409.81
2022-07-27T18:38:49.703Z,96403.38
2022-07-27T18:41:18.974Z,96415.56
2022-07-27T18:43:51.283Z,96404.16
2022-07-27T18:46:23.905Z,96400.47
2022-07-27T18:48:53.998Z,96407.34
2022-07-27T18:51:22.447Z,96407.59
2022-07-27T18:53:50.075Z,96410.53
2022-07-27T18:56:24.131Z,96413.50
2022-07-27T18:58:51.875Z,96414.69
2022-07-27T19:01:19.615Z,96421.53
2022-07-27T19:03:50.807Z,96418.69
2022-07-27T19:06:18.801Z,96422.19
2022-07-27T19:08:46.617Z,96433.63
2022-07-27T19:11:17.605Z,96426.66
2022-07-27T19:13:45.373Z,96428.50
2022-07-27T19:16:13.368Z,96436.94
2022-07-27T19:18:41.360Z,96438.63
2022-07-27T19:21:10.751Z,96433.88
2022-07-27T19:23:38.400Z,96438.00
2022-07-27T19:26:06.899Z,96445.44
2022-07-27T19:28:36.316Z,96442.66
2022-07-27T19:31:04.170Z,96445.25
2022-07-27T19:33:34.198Z,96446.16
2022-07-27T19:36:02.273Z,96447.41
2022-07-27T19:38:32.079Z,96439.38
2022-07-27T19:41:02.292Z,96443.88
2022-07-27T19:43:29.963Z,96449.06
2022-07-27T19:45:57.956Z,96455.53
2022-07-27T19:48:27.834Z,96448.88
2022-07-27T19:51:00.865Z,96448.75
2022-07-27T19:53:33.094Z,96461.09
2022-07-27T19:56:03.613Z,96463.19
2022-07-27T19:58:32.012Z,96458.81
2022-07-27T20:00:59.829Z,96461.28
2022-07-27T20:03:29.931Z,96458.91
2022-07-27T20:05:59.933Z,96463.00
2022-07-27T20:08:34.544Z,96466.69
2022-07-27T20:11:04.402Z,96466.69
2022-07-27T20:13:32.099Z,96471.19
2022-07-27T20:15:59.890Z,96465.78
2022-07-27T20:18:28.204Z,96464.59
2022-07-27T20:20:57.578Z,96463.31
2022-07-27T20:23:25.854Z,96457.91
2022-07-27T20:25:53.793Z,96458.81
2022-07-27T20:28:25.409Z,96460.13
2022-07-27T20:30:53.192Z,96470.22
2022-07-27T20:33:23.959Z,96461.91
2022-07-27T20:35:53.339Z,96463.00
2022-07-27T20:38:21.103Z,96454.06
2022-07-27T20:40:48.739Z,96464.25
2022-07-27T20:43:19.833Z,96469.28
2022-07-27T20:45:49.446Z,96469.00
2022-07-27T20:48:20.175Z,96468.03
2022-07-27T20:50:47.910Z,96468.22
2022-07-27T20:53:16.052Z,96465.28
2022-07-27T20:55:45.896Z,96468.56
2022-07-27T20:58:14.009Z,96469.38
2022-07-27T21:00:42.114Z,96462.47
2022-07-27T21:03:11.224Z,96464.56
2022-07-27T21:05:42.372Z,96470.31
2022-07-27T21:08:10.455Z,96460.84
2022-07-27T21:10:40.481Z,96459.41
2022-07-27T21:13:09.825Z,96457.59
2022-07-27T21:15:38.848Z,96497.94
2022-07-27T21:18:06.857Z,96461.53
2022-07-27T21:20:38.512Z,96457.34
2022-07-27T21:23:24.060Z,96464.28
2022-07-27T21:25:52.129Z,96461.13
2022-07-27T21:28:23.123Z,96461.13
2022-07-27T21:30:55.491Z,96461.50
2022-07-27T21:33:23.357Z,96465.63
2022-07-27T21:35:53.733Z,96471.91
2022-07-27T21:38:21.786Z,96473.19
2022-07-27T21:40:50.059Z,96470.19
2022-07-27T21:43:18.062Z,96461.78
2022-07-27T21:45:47.921Z,96464.78
2022-07-27T21:48:17.810Z,96468.69
2022-07-27T21:50:45.848Z,96465.16
2022-07-27T21:53:15.055Z,96466.81
2022-07-27T21:55:47.614Z,96470.88
2022-07-27T21:58:15.860Z,96472.16
2022-07-27T22:00:43.892Z,96469.81
2022-07-27T22:03:11.719Z,96472.34
2022-07-27T22:05:42.034Z,96464.91
2022-07-27T22:08:12.517Z,96466.81
2022-07-27T22:10:42.129Z,96466.69
2022-07-27T22:13:10.530Z,96469.41
2022-07-27T22:15:38.326Z,96467.84
2022-07-27T22:18:06.304Z,96465.69
2022-07-27T22:20:34.398Z,96470.88
2022-07-27T22:23:01.998Z,96466.44
2022-07-27T22:25:29.854Z,96466.34
2022-07-27T22:27:59.282Z,96464.00
2022-07-27T22:30:26.959Z,96465.63
2022-07-27T22:32:54.904Z,96476.03
2022-07-27T22:35:23.090Z,96475.91
2022-07-27T22:37:53.444Z,96475.44
2022-07-27T22:40:22.420Z,96475.88
2022-07-27T22:42:50.485Z,96480.09
2022-07-27T22:45:23.236Z,96481.19
2022-07-27T22:47:51.149Z,96487.31
2022-07-27T22:50:20.368Z,96489.34
2022-07-27T22:52:48.501Z,96490.88
2022-07-27T22:55:20.444Z,96479.25
2022-07-27T22:57:49.451Z,96481.22
2022-07-27T23:00:22.917Z,96478.19
2022-07-27T23:02:51.912Z,96488.81
2022-07-27T23:05:22.685Z,96490.88
2022-07-27T23:07:52.629Z,96488.59
2022-07-27T23:10:37.769Z,96489.19
2022-07-27T23:13:05.875Z,96488.56
2022-07-27T23:15:34.312Z,96497.03
2022-07-27T23:18:06.280Z,96483.31
2022-07-27T23:20:34.303Z,96474.41
2022-07-27T23:23:02.110Z,96475.28
2022-07-27T23:25:35.070Z,96471.09
2022-07-27T23:28:11.216Z,96472.91
2022-07-27T23:30:38.986Z,96473.38
2022-07-27T23:33:08.058Z,96477.28
2022-07-27T23:35:38.491Z,96475.25
2022-07-27T23:38:06.611Z,96464.19
2022-07-27T23:40:34.636Z,96468.31
2022-07-27T23:43:02.631Z,96475.25
2022-07-27T23:45:30.732Z,96471.25
2022-07-27T23:47:59.004Z,96473.47
2022-07-27T23:50:28.444Z,96458.78
2022-07-27T23:52:56.455Z,96465.50
2022-07-27T23:55:24.451Z,96467.44
2022-07-27T23:57:55.592Z,96459.22
